sensor_id;sensor_type;location;lat;lon;timestamp;pressure;altitude;pressure_sealevel;temperature;humidity
17362;BME280;8798;51.938;4.348;2023-03-11T00:01:45;100392.84;;;3.00;89.17
17362;BME280;8798;51.938;4.348;2023-03-11T00:04:13;100390.19;;;3.00;89.06
17362;BME280;8798;51.938;4.348;2023-03-11T00:06:40;100403.34;;;3.02;88.71
17362;BME280;8798;51.938;4.348;2023-03-11T00:09:08;100413.81;;;3.04;88.54
17362;BME280;8798;51.938;4.348;2023-03-11T00:11:36;100414.81;;;3.03;88.53
17362;BME280;8798;51.938;4.348;2023-03-11T00:14:05;100411.41;;;3.00;88.33
17362;BME280;8798;51.938;4.348;2023-03-11T00:16:33;100413.31;;;2.98;88.43
17362;BME280;8798;51.938;4.348;2023-03-11T00:19:01;100401.97;;;2.96;88.38
17362;BME280;8798;51.938;4.348;2023-03-11T00:21:29;100415.13;;;2.98;89.15
17362;BME280;8798;51.938;4.348;2023-03-11T00:23:57;100415.25;;;2.96;88.69
17362;BME280;8798;51.938;4.348;2023-03-11T00:26:26;100420.53;;;2.96;88.74
17362;BME280;8798;51.938;4.348;2023-03-11T00:28:54;100431.06;;;2.98;88.27
17362;BME280;8798;51.938;4.348;2023-03-11T00:31:23;100435.53;;;2.97;89.02
17362;BME280;8798;51.938;4.348;2023-03-11T00:33:53;100443.47;;;2.97;88.36
17362;BME280;8798;51.938;4.348;2023-03-11T00:36:24;100449.63;;;2.98;88.40
17362;BME280;8798;51.938;4.348;2023-03-11T00:38:57;100447.81;;;2.98;88.66
17362;BME280;8798;51.938;4.348;2023-03-11T00:41:25;100461.81;;;3.00;88.24
17362;BME280;8798;51.938;4.348;2023-03-11T00:43:53;100453.97;;;2.99;88.32
17362;BME280;8798;51.938;4.348;2023-03-11T00:46:22;100456.00;;;2.95;88.66
17362;BME280;8798;51.938;4.348;2023-03-11T00:48:50;100444.78;;;2.92;88.53
17362;BME280;8798;51.938;4.348;2023-03-11T00:51:18;100432.69;;;2.88;88.30
17362;BME280;8798;51.938;4.348;2023-03-11T00:53:46;100422.41;;;2.83;88.67
17362;BME280;8798;51.938;4.348;2023-03-11T00:56:14;100416.28;;;2.83;88.00
17362;BME280;8798;51.938;4.348;2023-03-11T00:58:43;100430.28;;;2.85;88.20
17362;BME280;8798;51.938;4.348;2023-03-11T01:01:13;100447.88;;;2.86;88.34
17362;BME280;8798;51.938;4.348;2023-03-11T01:03:43;100453.06;;;2.87;88.04
17362;BME280;8798;51.938;4.348;2023-03-11T01:06:12;100446.19;;;2.85;87.96
17362;BME280;8798;51.938;4.348;2023-03-11T01:08:40;100430.47;;;2.82;88.60
17362;BME280;8798;51.938;4.348;2023-03-11T01:11:08;100436.00;;;2.78;87.85
17362;BME280;8798;51.938;4.348;2023-03-11T01:13:36;100435.16;;;2.78;88.19
17362;BME280;8798;51.938;4.348;2023-03-11T01:16:04;100425.53;;;2.77;88.79
17362;BME280;8798;51.938;4.348;2023-03-11T01:18:33;100445.78;;;2.78;88.12
17362;BME280;8798;51.938;4.348;2023-03-11T01:21:03;100454.47;;;2.80;88.81
17362;BME280;8798;51.938;4.348;2023-03-11T01:23:31;100468.47;;;2.82;88.58
17362;BME280;8798;51.938;4.348;2023-03-11T01:25:59;100488.63;;;2.85;88.15
17362;BME280;8798;51.938;4.348;2023-03-11T01:28:27;100505.16;;;2.88;88.81
17362;BME280;8798;51.938;4.348;2023-03-11T01:30:54;100523.63;;;2.90;88.10
17362;BME280;8798;51.938;4.348;2023-03-11T01:33:22;100519.16;;;2.90;87.83
17362;BME280;8798;51.938;4.348;2023-03-11T01:35:51;100519.16;;;2.90;88.79
17362;BME280;8798;51.938;4.348;2023-03-11T01:38:20;100527.19;;;2.89;88.18
17362;BME280;8798;51.938;4.348;2023-03-11T01:40:49;100533.34;;;2.89;88.10
17362;BME280;8798;51.938;4.348;2023-03-11T01:43:46;100541.09;;;2.92;88.67
17362;BME280;8798;51.938;4.348;2023-03-11T01:46:17;100532.41;;;2.90;88.30
17362;BME280;8798;51.938;4.348;2023-03-11T01:48:47;100523.09;;;2.85;88.68
17362;BME280;8798;51.938;4.348;2023-03-11T01:51:18;100506.53;;;2.81;88.09
17362;BME280;8798;51.938;4.348;2023-03-11T01:53:49;100499.78;;;2.77;89.02
17362;BME280;8798;51.938;4.348;2023-03-11T01:56:18;100492.03;;;2.74;88.47
17362;BME280;8798;51.938;4.348;2023-03-11T01:58:48;100478.16;;;2.70;88.57
17362;BME280;8798;51.938;4.348;2023-03-11T02:01:18;100468.84;;;2.65;87.85
17362;BME280;8798;51.938;4.348;2023-03-11T02:03:46;100452.41;;;2.59;87.92
17362;BME280;8798;51.938;4.348;2023-03-11T02:06:17;100447.31;;;2.56;88.18
17362;BME280;8798;51.938;4.348;2023-03-11T02:08:46;100436.13;;;2.53;88.21
17362;BME280;8798;51.938;4.348;2023-03-11T02:11:18;100423.94;;;2.50;87.83
17362;BME280;8798;51.938;4.348;2023-03-11T02:13:47;100415.22;;;2.48;88.76
17362;BME280;8798;51.938;4.348;2023-03-11T02:16:16;100427.75;;;2.46;88.49
17362;BME280;8798;51.938;4.348;2023-03-11T02:18:44;100432.22;;;2.46;88.85
17362;BME280;8798;51.938;4.348;2023-03-11T02:21:22;100434.00;;;2.45;88.26
17362;BME280;8798;51.938;4.348;2023-03-11T02:23:56;100436.66;;;2.45;88.78
17362;BME280;8798;51.938;4.348;2023-03-11T02:26:31;100438.44;;;2.45;88.40
17362;BME280;8798;51.938;4.348;2023-03-11T02:29:05;100448.94;;;2.46;88.62
17362;BME280;8798;51.938;4.348;2023-03-11T02:31:36;100449.03;;;2.45;88.07
17362;BME280;8798;51.938;4.348;2023-03-11T02:34:13;100437.81;;;2.41;89.07
17362;BME280;8798;51.938;4.348;2023-03-11T02:36:42;100451.91;;;2.42;88.29
17362;BME280;8798;51.938;4.348;2023-03-11T02:39:11;100454.47;;;2.43;88.15
17362;BME280;8798;51.938;4.348;2023-03-11T02:41:41;100457.13;;;2.43;88.88
17362;BME280;8798;51.938;4.348;2023-03-11T02:44:14;100471.22;;;2.44;88.88
17362;BME280;8798;51.938;4.348;2023-03-11T02:46:43;100457.22;;;2.42;88.56
17362;BME280;8798;51.938;4.348;2023-03-11T02:49:13;100451.41;;;2.36;88.27
17362;BME280;8798;51.938;4.348;2023-03-11T02:51:41;100429.78;;;2.30;88.83
17362;BME280;8798;51.938;4.348;2023-03-11T02:54:09;100416.88;;;2.25;89.15
17362;BME280;8798;51.938;4.348;2023-03-11T02:56:37;100402.25;;;2.20;88.30
17362;BME280;8798;51.938;4.348;2023-03-11T02:59:05;100389.25;;;2.17;88.39
17362;BME280;8798;51.938;4.348;2023-03-11T03:01:34;100364.97;;;2.10;88.73
17362;BME280;8798;51.938;4.348;2023-03-11T03:04:02;100335.56;;;2.02;88.45
17362;BME280;8798;51.938;4.348;2023-03-11T03:06:30;100326.25;;;1.96;88.56
17362;BME280;8798;51.938;4.348;2023-03-11T03:08:58;100310.78;;;1.90;88.03
17362;BME280;8798;51.938;4.348;2023-03-11T03:11:26;100294.38;;;1.85;88.55
17362;BME280;8798;51.938;4.348;2023-03-11T03:13:53;100282.34;;;1.81;89.07
17362;BME280;8798;51.938;4.348;2023-03-11T03:16:21;100270.28;;;1.77;87.87
17362;BME280;8798;51.938;4.348;2023-03-11T03:18:51;100257.47;;;1.70;87.83
17362;BME280;8798;51.938;4.348;2023-03-11T03:21:18;100238.41;;;1.65;88.60
17362;BME280;8798;51.938;4.348;2023-03-11T03:23:46;100229.88;;;1.62;88.30
17362;BME280;8798;51.938;4.348;2023-03-11T03:26:14;100223.22;;;1.56;88.37
17362;BME280;8798;51.938;4.348;2023-03-11T03:28:42;100221.63;;;1.54;88.71
17362;BME280;8798;51.938;4.348;2023-03-11T03:31:10;100210.41;;;1.50;88.96
17362;BME280;8798;51.938;4.348;2023-03-11T03:33:38;100203.75;;;1.44;88.49
17362;BME280;8798;51.938;4.348;2023-03-11T03:36:10;100188.22;;;1.40;88.21
17362;BME280;8798;51.938;4.348;2023-03-11T03:38:39;100184.94;;;1.36;88.58
17362;BME280;8798;51.938;4.348;2023-03-11T03:41:07;100180.72;;;1.34;88.58
17362;BME280;8798;51.938;4.348;2023-03-11T03:43:36;100175.63;;;1.31;88.86
17362;BME280;8798;51.938;4.348;2023-03-11T03:46:04;100176.59;;;1.29;89.06
17362;BME280;8798;51.938;4.348;2023-03-11T03:48:33;100175.03;;;1.27;89.10
17362;BME280;8798;51.938;4.348;2023-03-11T03:51:02;100182.22;;;1.25;87.92
17362;BME280;8798;51.938;4.348;2023-03-11T03:53:33;100171.72;;;1.23;89.07
17362;BME280;8798;51.938;4.348;2023-03-11T03:56:02;100175.44;;;1.21;88.59
17362;BME280;8798;51.938;4.348;2023-03-11T03:58:30;100173.03;;;1.18;88.23
17362;BME280;8798;51.938;4.348;2023-03-11T04:00:58;100175.88;;;1.15;88.96
17362;BME280;8798;51.938;4.348;2023-03-11T04:03:27;100168.06;;;1.13;88.52
17362;BME280;8798;51.938;4.348;2023-03-11T04:06:05;100174.31;;;1.12;88.10
17362;BME280;8798;51.938;4.348;2023-03-11T04:08:35;100174.41;;;1.11;89.01
17362;BME280;8798;51.938;4.348;2023-03-11T04:11:03;100178.00;;;1.10;89.02
17362;BME280;8798;51.938;4.348;2023-03-11T04:13:31;100178.25;;;1.06;87.92
17362;BME280;8798;51.938;4.348;2023-03-11T04:15:59;100181.94;;;1.04;89.17
17362;BME280;8798;51.938;4.348;2023-03-11T04:18:29;100175.03;;;1.01;87.92
17362;BME280;8798;51.938;4.348;2023-03-11T04:20:57;100177.81;;;1.00;88.86
17362;BME280;8798;51.938;4.348;2023-03-11T04:23:25;100173.59;;;0.97;88.47
17362;BME280;8798;51.938;4.348;2023-03-11T04:25:54;100182.56;;;0.95;88.78
17362;BME280;8798;51.938;4.348;2023-03-11T04:28:22;100172.09;;;0.93;88.98
17362;BME280;8798;51.938;4.348;2023-03-11T04:30:49;100177.59;;;0.90;88.38
17362;BME280;8798;51.938;4.348;2023-03-11T04:33:18;100175.06;;;0.89;88.29
17362;BME280;8798;51.938;4.348;2023-03-11T04:35:46;100179.59;;;0.86;87.99
17362;BME280;8798;51.938;4.348;2023-03-11T04:38:13;100185.00;;;0.85;89.27
17362;BME280;8798;51.938;4.348;2023-03-11T04:40:41;100172.72;;;0.84;88.59
17362;BME280;8798;51.938;4.348;2023-03-11T04:43:10;100172.09;;;0.80;88.90
17362;BME280;8798;51.938;4.348;2023-03-11T04:45:39;100173.16;;;0.78;88.28
17362;BME280;8798;51.938;4.348;2023-03-11T04:48:07;100176.78;;;0.77;88.47
17362;BME280;8798;51.938;4.348;2023-03-11T04:50:35;100172.66;;;0.73;88.73
17362;BME280;8798;51.938;4.348;2023-03-11T04:53:03;100166.63;;;0.71;88.20
17362;BME280;8798;51.938;4.348;2023-03-11T04:55:30;100165.03;;;0.68;88.06
17362;BME280;8798;51.938;4.348;2023-03-11T04:57:58;100161.63;;;0.66;88.35
17362;BME280;8798;51.938;4.348;2023-03-11T05:00:28;100166.19;;;0.64;88.22
17362;BME280;8798;51.938;4.348;2023-03-11T05:02:55;100161.94;;;0.61;88.45
17362;BME280;8798;51.938;4.348;2023-03-11T05:05:23;100161.31;;;0.58;88.99
17362;BME280;8798;51.938;4.348;2023-03-11T05:07:51;100157.09;;;0.55;88.37
17362;BME280;8798;51.938;4.348;2023-03-11T05:10:19;100160.69;;;0.54;89.10
17362;BME280;8798;51.938;4.348;2023-03-11T05:12:48;100152.88;;;0.53;88.94
17362;BME280;8798;51.938;4.348;2023-03-11T05:15:16;100173.16;;;0.52;88.95
17362;BME280;8798;51.938;4.348;2023-03-11T05:17:46;100167.22;;;0.49;88.26
17362;BME280;8798;51.938;4.348;2023-03-11T05:20:14;100167.34;;;0.47;88.01
17362;BME280;8798;51.938;4.348;2023-03-11T05:22:42;100174.53;;;0.45;88.66
17362;BME280;8798;51.938;4.348;2023-03-11T05:25:09;100167.66;;;0.42;88.22
17362;BME280;8798;51.938;4.348;2023-03-11T05:27:37;100167.66;;;0.42;89.07
17362;BME280;8798;51.938;4.348;2023-03-11T05:30:07;100170.50;;;0.39;88.52
17362;BME280;8798;51.938;4.348;2023-03-11T05:32:35;100172.41;;;0.37;88.71
17362;BME280;8798;51.938;4.348;2023-03-11T05:35:05;100178.75;;;0.35;88.54
17362;BME280;8798;51.938;4.348;2023-03-11T05:37:33;100177.78;;;0.36;88.97
17362;BME280;8798;51.938;4.348;2023-03-11T05:40:04;100185.81;;;0.34;88.58
17362;BME280;8798;51.938;4.348;2023-03-11T05:42:32;100186.75;;;0.33;88.44
17362;BME280;8798;51.938;4.348;2023-03-11T05:45:00;100190.38;;;0.32;88.56
17362;BME280;8798;51.938;4.348;2023-03-11T05:47:28;100190.47;;;0.31;88.29
17362;BME280;8798;51.938;4.348;2023-03-11T05:49:55;100200.28;;;0.29;88.33
17362;BME280;8798;51.938;4.348;2023-03-11T05:52:25;100191.59;;;0.27;88.53
17362;BME280;8798;51.938;4.348;2023-03-11T05:54:52;100192.66;;;0.24;88.67
17362;BME280;8798;51.938;4.348;2023-03-11T05:57:20;100195.41;;;0.23;88.53
17362;BME280;8798;51.938;4.348;2023-03-11T05:59:48;100194.66;;;0.20;89.24
17362;BME280;8798;51.938;4.348;2023-03-11T06:02:16;100192.13;;;0.19;88.41
17362;BME280;8798;51.938;4.348;2023-03-11T06:04:46;100200.16;;;0.17;88.88
17362;BME280;8798;51.938;4.348;2023-03-11T06:07:14;100208.06;;;0.17;88.42
17362;BME280;8798;51.938;4.348;2023-03-11T06:09:44;100210.72;;;0.17;88.95
17362;BME280;8798;51.938;4.348;2023-03-11T06:12:13;100216.00;;;0.17;89.12
17362;BME280;8798;51.938;4.348;2023-03-11T06:14:41;100225.69;;;0.17;89.10
17362;BME280;8798;51.938;4.348;2023-03-11T06:17:09;100230.13;;;0.16;88.58
17362;BME280;8798;51.938;4.348;2023-03-11T06:19:37;100236.25;;;0.17;88.71
17362;BME280;8798;51.938;4.348;2023-03-11T06:22:05;100250.41;;;0.16;88.23
17362;BME280;8798;51.938;4.348;2023-03-11T06:24:32;100258.34;;;0.16;89.05
17362;BME280;8798;51.938;4.348;2023-03-11T06:27:02;100264.44;;;0.16;88.10
17362;BME280;8798;51.938;4.348;2023-03-11T06:29:30;100267.09;;;0.16;88.57
17362;BME280;8798;51.938;4.348;2023-03-11T06:31:58;100266.25;;;0.16;88.74
17362;BME280;8798;51.938;4.348;2023-03-11T06:34:25;100287.28;;;0.17;88.69
17362;BME280;8798;51.938;4.348;2023-03-11T06:36:53;100288.13;;;0.18;88.86
17362;BME280;8798;51.938;4.348;2023-03-11T06:39:22;100308.28;;;0.19;88.65
17362;BME280;8798;51.938;4.348;2023-03-11T06:41:50;100316.22;;;0.19;88.87
17362;BME280;8798;51.938;4.348;2023-03-11T06:44:19;100329.22;;;0.22;88.16
17362;BME280;8798;51.938;4.348;2023-03-11T06:46:47;100331.97;;;0.20;88.50
17362;BME280;8798;51.938;4.348;2023-03-11T06:49:15;100348.66;;;0.21;89.13
17362;BME280;8798;51.938;4.348;2023-03-11T06:51:43;100360.72;;;0.25;88.49
17362;BME280;8798;51.938;4.348;2023-03-11T06:54:11;100380.91;;;0.26;88.94
17362;BME280;8798;51.938;4.348;2023-03-11T06:56:38;100399.19;;;0.29;88.71
17362;BME280;8798;51.938;4.348;2023-03-11T06:59:06;100414.94;;;0.31;88.53
17362;BME280;8798;51.938;4.348;2023-03-11T07:01:36;100423.72;;;0.31;88.85
17362;BME280;8798;51.938;4.348;2023-03-11T07:04:04;100434.94;;;0.35;89.09
17362;BME280;8798;51.938;4.348;2023-03-11T07:06:32;100448.03;;;0.36;89.25
17362;BME280;8798;51.938;4.348;2023-03-11T07:08:59;100472.47;;;0.40;89.05
17362;BME280;8798;51.938;4.348;2023-03-11T07:11:27;100486.31;;;0.43;88.47
17362;BME280;8798;51.938;4.348;2023-03-11T07:13:55;100508.13;;;0.47;88.68
17362;BME280;8798;51.938;4.348;2023-03-11T07:16:24;100525.47;;;0.51;89.22
17362;BME280;8798;51.938;4.348;2023-03-11T07:18:56;100542.94;;;0.54;89.14
17362;BME280;8798;51.938;4.348;2023-03-11T07:21:24;100560.38;;;0.56;88.95
17362;BME280;8798;51.938;4.348;2023-03-11T07:23:54;100581.25;;;0.61;89.00
17362;BME280;8798;51.938;4.348;2023-03-11T07:26:23;100606.63;;;0.63;89.15
17362;BME280;8798;51.938;4.348;2023-03-11T07:28:53;100621.38;;;0.68;88.68
17362;BME280;8798;51.938;4.348;2023-03-11T07:31:23;100644.75;;;0.74;89.50
17362;BME280;8798;51.938;4.348;2023-03-11T07:33:51;100682.25;;;0.80;88.87
17362;BME280;8798;51.938;4.348;2023-03-11T07:36:22;100717.09;;;0.87;88.81
17362;BME280;8798;51.938;4.348;2023-03-11T07:38:54;100748.38;;;0.95;89.50
17362;BME280;8798;51.938;4.348;2023-03-11T07:41:24;100783.13;;;1.03;89.45
17362;BME280;8798;51.938;4.348;2023-03-11T07:43:53;100822.25;;;1.12;89.47
17362;BME280;8798;51.938;4.348;2023-03-11T07:46:22;100858.72;;;1.21;89.67
17362;BME280;8798;51.938;4.348;2023-03-11T07:48:50;100896.16;;;1.29;88.67
17362;BME280;8798;51.938;4.348;2023-03-11T07:51:22;100928.41;;;1.36;88.41
17362;BME280;8798;51.938;4.348;2023-03-11T07:53:52;100955.34;;;1.43;88.56
17362;BME280;8798;51.938;4.348;2023-03-11T07:56:22;100976.22;;;1.47;88.74
17362;BME280;8798;51.938;4.348;2023-03-11T07:58:51;100997.16;;;1.52;89.13
17362;BME280;8798;51.938;4.348;2023-03-11T08:01:22;101021.53;;;1.57;88.82
17362;BME280;8798;51.938;4.348;2023-03-11T08:03:52;101039.81;;;1.62;89.17
17362;BME280;8798;51.938;4.348;2023-03-11T08:06:26;101060.72;;;1.66;89.06
17362;BME280;8798;51.938;4.348;2023-03-11T08:08:54;101078.03;;;1.72;88.85
17362;BME280;8798;51.938;4.348;2023-03-11T08:11:23;101105.94;;;1.78;89.59
17362;BME280;8798;51.938;4.348;2023-03-11T08:13:51;101118.94;;;1.82;88.57
17362;BME280;8798;51.938;4.348;2023-03-11T08:16:21;101147.72;;;1.88;89.42
17362;BME280;8798;51.938;4.348;2023-03-11T08:18:50;101163.34;;;1.93;89.80
17362;BME280;8798;51.938;4.348;2023-03-11T08:21:20;101192.88;;;2.01;89.02
17362;BME280;8798;51.938;4.348;2023-03-11T08:23:50;101232.19;;;2.09;88.99
17362;BME280;8798;51.938;4.348;2023-03-11T08:26:20;101257.28;;;2.18;89.68
17362;BME280;8798;51.938;4.348;2023-03-11T08:28:48;101298.25;;;2.28;89.15
17362;BME280;8798;51.938;4.348;2023-03-11T08:31:17;101337.38;;;2.39;88.92
17362;BME280;8798;51.938;4.348;2023-03-11T08:33:46;101380.06;;;2.50;89.28
17362;BME280;8798;51.938;4.348;2023-03-11T08:36:16;101419.28;;;2.59;89.20
17362;BME280;8798;51.938;4.348;2023-03-11T08:38:44;101454.03;;;2.70;89.27
17362;BME280;8798;51.938;4.348;2023-03-11T08:41:14;101508.19;;;2.82;89.62
17362;BME280;8798;51.938;4.348;2023-03-11T08:43:42;101576.13;;;3.00;89.04
17362;BME280;8798;51.938;4.348;2023-03-11T08:46:14;101634.53;;;3.16;89.21
17362;BME280;8798;51.938;4.348;2023-03-11T08:48:44;101682.41;;;3.31;89.28
17362;BME280;8798;51.938;4.348;2023-03-11T08:51:12;101732.97;;;3.45;89.50
17362;BME280;8798;51.938;4.348;2023-03-11T08:53:40;101801.09;;;3.62;89.30
17362;BME280;8798;51.938;4.348;2023-03-11T08:56:08;101857.00;;;3.76;89.13
17362;BME280;8798;51.938;4.348;2023-03-11T08:58:37;101887.34;;;3.88;89.11
17362;BME280;8798;51.938;4.348;2023-03-11T09:01:05;101921.41;;;3.97;89.57
17362;BME280;8798;51.938;4.348;2023-03-11T09:03:34;101952.84;;;4.06;89.47
17362;BME280;8798;51.938;4.348;2023-03-11T09:06:05;101984.25;;;4.16;89.59
17362;BME280;8798;51.938;4.348;2023-03-11T09:08:34;101999.78;;;4.23;89.17
17362;BME280;8798;51.938;4.348;2023-03-11T09:11:02;102011.03;;;4.28;89.33
17362;BME280;8798;51.938;4.348;2023-03-11T09:13:31;102016.19;;;4.31;89.33
17362;BME280;8798;51.938;4.348;2023-03-11T09:16:00;102030.09;;;4.37;89.06
17362;BME280;8798;51.938;4.348;2023-03-11T09:18:28;102033.38;;;4.42;89.47
17362;BME280;8798;51.938;4.348;2023-03-11T09:20:55;102047.28;;;4.47;89.16
17362;BME280;8798;51.938;4.348;2023-03-11T09:23:24;102062.16;;;4.51;89.32
17362;BME280;8798;51.938;4.348;2023-03-11T09:25:52;102061.97;;;4.54;89.56
17362;BME280;8798;51.938;4.348;2023-03-11T09:28:20;102074.06;;;4.60;89.28
17362;BME280;8798;51.938;4.348;2023-03-11T09:30:48;102088.00;;;4.65;89.07
17362;BME280;8798;51.938;4.348;2023-03-11T09:33:17;102116.78;;;4.74;88.96
17362;BME280;8798;51.938;4.348;2023-03-11T09:35:45;102148.16;;;4.85;89.48
17362;BME280;8798;51.938;4.348;2023-03-11T09:38:13;102184.84;;;4.95;89.15
17362;BME280;8798;51.938;4.348;2023-03-11T09:40:57;102236.44;;;5.10;88.92
17362;BME280;8798;51.938;4.348;2023-03-11T09:43:36;102274.88;;;5.22;89.26
17362;BME280;8798;51.938;4.348;2023-03-11T09:46:24;102300.94;;;5.33;89.73
17362;BME280;8798;51.938;4.348;2023-03-11T09:49:06;102340.25;;;5.45;88.78
17362;BME280;8798;51.938;4.348;2023-03-11T09:51:38;102375.94;;;5.58;89.03
17362;BME280;8798;51.938;4.348;2023-03-11T09:54:10;102412.63;;;5.71;88.96
17362;BME280;8798;51.938;4.348;2023-03-11T09:56:41;102452.91;;;5.82;89.11
17362;BME280;8798;51.938;4.348;2023-03-11T09:59:14;102461.53;;;5.87;88.46
17362;BME280;8798;51.938;4.348;2023-03-11T10:01:47;102450.69;;;5.90;88.28
17362;BME280;8798;51.938;4.348;2023-03-11T10:04:21;102464.59;;;5.97;89.31
17362;BME280;8798;51.938;4.348;2023-03-11T10:06:50;102485.53;;;6.05;88.37
17362;BME280;8798;51.938;4.348;2023-03-11T10:09:29;102508.09;;;6.15;88.71
17362;BME280;8798;51.938;4.348;2023-03-11T10:12:13;102506.06;;;6.20;88.14
17362;BME280;8798;51.938;4.348;2023-03-11T10:14:54;102529.75;;;6.26;89.28
17362;BME280;8798;51.938;4.348;2023-03-11T10:17:38;102533.81;;;6.33;88.27
17362;BME280;8798;51.938;4.348;2023-03-11T10:20:21;102535.34;;;6.37;88.74
17362;BME280;8798;51.938;4.348;2023-03-11T10:23:01;102530.75;;;6.41;87.95
17362;BME280;8798;51.938;4.348;2023-03-11T10:25:44;102531.41;;;6.44;88.64
17362;BME280;8798;51.938;4.348;2023-03-11T10:28:17;102534.69;;;6.50;87.96
17362;BME280;8798;51.938;4.348;2023-03-11T10:30:47;102546.88;;;6.55;87.99
17362;BME280;8798;51.938;4.348;2023-03-11T10:33:21;102517.59;;;6.54;88.17
17362;BME280;8798;51.938;4.348;2023-03-11T10:35:56;102502.50;;;6.53;88.86
17362;BME280;8798;51.938;4.348;2023-03-11T10:38:27;102486.47;;;6.53;88.10
17362;BME280;8798;51.938;4.348;2023-03-11T10:41:00;102487.25;;;6.55;87.62
17362;BME280;8798;51.938;4.348;2023-03-11T10:43:32;102481.78;;;6.58;87.46
17362;BME280;8798;51.938;4.348;2023-03-11T10:46:03;102472.72;;;6.60;88.29
17362;BME280;8798;51.938;4.348;2023-03-11T10:48:33;102461.88;;;6.63;87.01
17362;BME280;8798;51.938;4.348;2023-03-11T10:51:11;102454.72;;;6.64;87.12
17362;BME280;8798;51.938;4.348;2023-03-11T10:53:44;102463.31;;;6.69;87.48
17362;BME280;8798;51.938;4.348;2023-03-11T10:56:24;102462.22;;;6.73;88.38
17362;BME280;8798;51.938;4.348;2023-03-11T10:58:52;102471.69;;;6.79;87.22
17362;BME280;8798;51.938;4.348;2023-03-11T11:01:21;102464.44;;;6.81;87.59
17362;BME280;8798;51.938;4.348;2023-03-11T11:03:50;102469.63;;;6.84;87.14
17362;BME280;8798;51.938;4.348;2023-03-11T11:06:25;102442.06;;;6.83;87.42
17362;BME280;8798;51.938;4.348;2023-03-11T11:09:13;102404.06;;;6.78;87.03
17362;BME280;8798;51.938;4.348;2023-03-11T11:11:42;102376.66;;;6.75;86.63
17362;BME280;8798;51.938;4.348;2023-03-11T11:14:46;102336.13;;;6.68;86.73
17362;BME280;8798;51.938;4.348;2023-03-11T11:17:17;102316.66;;;6.66;87.22
17362;BME280;8798;51.938;4.348;2023-03-11T11:19:47;102291.00;;;6.63;86.50
17362;BME280;8798;51.938;4.348;2023-03-11T11:22:20;102254.84;;;6.58;86.04
17362;BME280;8798;51.938;4.348;2023-03-11T11:24:50;102226.63;;;6.54;85.85
17362;BME280;8798;51.938;4.348;2023-03-11T11:27:21;102198.38;;;6.50;86.42
17362;BME280;8798;51.938;4.348;2023-03-11T11:30:06;102171.09;;;6.44;86.54
17362;BME280;8798;51.938;4.348;2023-03-11T11:32:40;102146.44;;;6.41;86.26
17362;BME280;8798;51.938;4.348;2023-03-11T11:35:10;102125.25;;;6.38;85.95
17362;BME280;8798;51.938;4.348;2023-03-11T11:37:42;102108.38;;;6.37;85.56
17362;BME280;8798;51.938;4.348;2023-03-11T11:40:20;102099.53;;;6.37;85.43
17362;BME280;8798;51.938;4.348;2023-03-11T11:42:53;102082.53;;;6.38;85.72
17362;BME280;8798;51.938;4.348;2023-03-11T11:45:28;102071.97;;;6.36;86.30
17362;BME280;8798;51.938;4.348;2023-03-11T11:47:59;102058.63;;;6.36;85.70
17362;BME280;8798;51.938;4.348;2023-03-11T11:50:33;102056.81;;;6.37;84.90
17362;BME280;8798;51.938;4.348;2023-03-11T11:53:12;102035.56;;;6.35;85.44
17362;BME280;8798;51.938;4.348;2023-03-11T11:55:46;102030.22;;;6.35;85.35
17362;BME280;8798;51.938;4.348;2023-03-11T11:58:14;102025.66;;;6.37;84.68
17362;BME280;8798;51.938;4.348;2023-03-11T12:00:54;102038.72;;;6.42;84.53
17362;BME280;8798;51.938;4.348;2023-03-11T12:03:43;102063.09;;;6.50;84.99
17362;BME280;8798;51.938;4.348;2023-03-11T12:06:20;102069.91;;;6.56;85.09
17362;BME280;8798;51.938;4.348;2023-03-11T12:09:01;102075.81;;;6.61;85.26
17362;BME280;8798;51.938;4.348;2023-03-11T12:11:36;102101.25;;;6.66;85.01
17362;BME280;8798;51.938;4.348;2023-03-11T12:14:12;102100.97;;;6.71;84.42
17362;BME280;8798;51.938;4.348;2023-03-11T12:16:46;102101.75;;;6.73;83.86
17362;BME280;8798;51.938;4.348;2023-03-11T12:19:22;102084.88;;;6.73;84.72
17362;BME280;8798;51.938;4.348;2023-03-11T12:25:18;102076.75;;;6.74;84.00
17362;BME280;8798;51.938;4.348;2023-03-11T12:27:51;102070.47;;;6.75;83.24
17362;BME280;8798;51.938;4.348;2023-03-11T12:30:24;102074.63;;;6.79;83.26
17362;BME280;8798;51.938;4.348;2023-03-11T12:32:56;102075.41;;;6.81;83.61
17362;BME280;8798;51.938;4.348;2023-03-11T12:35:27;102071.59;;;6.85;83.04
17362;BME280;8798;51.938;4.348;2023-03-11T12:38:05;102060.16;;;6.83;82.30
17362;BME280;8798;51.938;4.348;2023-03-11T12:40:59;102063.47;;;6.87;83.20
17362;BME280;8798;51.938;4.348;2023-03-11T12:47:01;102049.06;;;6.89;82.45
17362;BME280;8798;51.938;4.348;2023-03-11T12:49:31;102065.56;;;6.96;82.33
17362;BME280;8798;51.938;4.348;2023-03-11T12:52:01;102061.94;;;6.97;83.08
17362;BME280;8798;51.938;4.348;2023-03-11T12:54:30;102074.06;;;7.03;82.87
17362;BME280;8798;51.938;4.348;2023-03-11T12:57:02;102075.75;;;7.04;81.79
17362;BME280;8798;51.938;4.348;2023-03-11T13:02:55;102067.44;;;7.08;81.80
17362;BME280;8798;51.938;4.348;2023-03-11T13:05:30;102082.22;;;7.14;81.91
17362;BME280;8798;51.938;4.348;2023-03-11T13:08:08;102098.72;;;7.21;82.01
17362;BME280;8798;51.938;4.348;2023-03-11T13:10:40;102115.13;;;7.29;81.29
17362;BME280;8798;51.938;4.348;2023-03-11T13:13:36;102156.16;;;7.42;80.67
17362;BME280;8798;51.938;4.348;2023-03-11T13:16:34;102191.81;;;7.56;80.52
17362;BME280;8798;51.938;4.348;2023-03-11T13:22:40;102296.72;;;7.88;80.67
17362;BME280;8798;51.938;4.348;2023-03-11T13:25:26;102351.00;;;8.04;80.49
17362;BME280;8798;51.938;4.348;2023-03-11T13:28:00;102395.50;;;8.19;80.63
17362;BME280;8798;51.938;4.348;2023-03-11T13:30:36;102401.34;;;8.26;80.08
17362;BME280;8798;51.938;4.348;2023-03-11T13:33:24;102402.06;;;8.28;80.10
17362;BME280;8798;51.938;4.348;2023-03-11T13:36:07;102389.38;;;8.32;79.56
17362;BME280;8798;51.938;4.348;2023-03-11T13:38:44;102432.41;;;8.43;79.63
17362;BME280;8798;51.938;4.348;2023-03-11T13:41:18;102424.06;;;8.48;79.34
17362;BME280;8798;51.938;4.348;2023-03-11T13:43:50;102445.00;;;8.55;79.07